createdAt,value
2022-09-06T00:00:41.215Z,21.34
2022-09-06T00:06:43.201Z,21.35
2022-09-06T00:12:45.172Z,21.01
2022-09-06T00:18:47.341Z,20.97
2022-09-06T00:24:49.446Z,20.87
2022-09-06T00:30:51.624Z,20.87
2022-09-06T00:36:54.414Z,20.92
2022-09-06T00:42:59.419Z,20.85
2022-09-06T00:49:09.261Z,20.65
2022-09-06T00:55:11.710Z,20.70
2022-09-06T01:01:13.745Z,20.87
2022-09-06T01:07:51.433Z,20.84
2022-09-06T01:14:33.862Z,20.77
2022-09-06T01:21:01.759Z,20.84
2022-09-06T01:27:43.565Z,20.73
2022-09-06T01:34:06.533Z,20.99
2022-09-06T01:40:09.050Z,21.12
2022-09-06T01:46:39.505Z,20.74
2022-09-06T01:53:09.264Z,20.78
2022-09-06T02:00:05.869Z,20.64
2022-09-06T02:06:18.333Z,20.48
2022-09-06T02:12:22.816Z,20.38
2022-09-06T02:18:44.487Z,20.49
2022-09-06T02:24:51.045Z,20.40
2022-09-06T02:31:01.180Z,20.51
2022-09-06T02:37:03.524Z,20.60
2022-09-06T02:43:06.313Z,20.21
2022-09-06T02:49:08.548Z,20.17
2022-09-06T02:55:11.568Z,20.19
2022-09-06T03:01:13.660Z,20.19
2022-09-06T03:07:15.639Z,20.06
2022-09-06T03:13:18.025Z,20.14
2022-09-06T03:19:20.179Z,20.03
2022-09-06T03:25:22.206Z,19.91
2022-09-06T03:31:24.163Z,19.68
2022-09-06T03:37:26.240Z,19.53
2022-09-06T03:43:28.298Z,19.44
2022-09-06T03:49:30.288Z,19.62
2022-09-06T03:55:32.216Z,19.76
2022-09-06T04:01:34.210Z,19.63
2022-09-06T04:07:37.972Z,19.50
2022-09-06T04:13:39.876Z,19.42
2022-09-06T04:19:41.830Z,19.70
2022-09-06T04:25:49.371Z,19.57
2022-09-06T04:31:51.359Z,19.73
2022-09-06T04:37:53.379Z,19.80
2022-09-06T04:43:55.327Z,19.55
2022-09-06T04:49:57.266Z,19.31
2022-09-06T04:55:59.336Z,19.54
2022-09-06T05:02:01.356Z,19.25
2022-09-06T05:08:03.651Z,19.15
2022-09-06T05:14:05.601Z,19.34
2022-09-06T05:20:08.910Z,19.32
2022-09-06T05:26:10.965Z,19.43
2022-09-06T05:32:12.919Z,19.57
2022-09-06T05:38:15.047Z,19.56
2022-09-06T05:44:17.034Z,19.73
2022-09-06T05:50:18.972Z,19.90
2022-09-06T05:56:22.294Z,20.12
2022-09-06T06:02:25.008Z,20.10
2022-09-06T06:08:27.121Z,20.42
2022-09-06T06:14:29.142Z,20.63
2022-09-06T06:20:31.090Z,20.74
2022-09-06T06:26:35.536Z,20.81
2022-09-06T06:32:37.463Z,20.81
2022-09-06T06:38:42.582Z,20.84
2022-09-06T06:44:44.562Z,20.68
2022-09-06T06:50:46.563Z,20.80
2022-09-06T06:56:48.497Z,20.97
2022-09-06T07:02:50.421Z,21.00
2022-09-06T07:08:52.380Z,21.66
2022-09-06T07:14:54.416Z,23.18
2022-09-06T07:33:41.160Z,24.16
2022-09-06T07:39:43.275Z,23.93
2022-09-06T07:45:45.293Z,23.96
2022-09-06T07:51:48.717Z,23.84
2022-09-06T07:57:50.637Z,24.15
2022-09-06T08:03:52.682Z,24.20
2022-09-06T08:09:54.675Z,24.90
2022-09-06T08:16:06.637Z,25.49
2022-09-06T08:22:08.623Z,25.30
2022-09-06T08:28:11.067Z,26.23
2022-09-06T08:34:14.247Z,26.51
2022-09-06T08:40:23.952Z,26.52
2022-09-06T08:46:41.828Z,26.14
2022-09-06T08:53:18.252Z,25.72
2022-09-06T08:59:20.667Z,25.72
2022-09-06T09:05:36.267Z,25.49
2022-09-06T09:11:43.221Z,25.59
2022-09-06T09:17:47.474Z,25.88
2022-09-06T09:23:58.827Z,28.45
2022-09-06T09:36:28.139Z,30.20
2022-09-06T09:42:35.557Z,30.18
2022-09-06T09:48:38.412Z,31.35
2022-09-06T09:54:46.677Z,33.14
2022-09-06T10:00:49.286Z,35.22
2022-09-06T10:13:29.644Z,33.56
2022-09-06T10:19:42.727Z,33.79
2022-09-06T10:26:31.004Z,32.47
2022-09-06T10:32:56.689Z,32.27
2022-09-06T10:39:26.002Z,34.77
2022-09-06T10:45:38.368Z,36.83
2022-09-06T10:51:59.122Z,37.29
2022-09-06T10:58:20.704Z,37.92
2022-09-06T11:04:32.261Z,38.44
2022-09-06T11:10:38.507Z,39.24
2022-09-06T11:16:57.713Z,38.04
2022-09-06T11:23:14.192Z,38.39
2022-09-06T11:29:26.735Z,39.53
2022-09-06T11:35:33.412Z,39.92
2022-09-06T11:41:41.824Z,40.98
2022-09-06T11:47:51.798Z,41.46
2022-09-06T11:54:07.738Z,41.48
2022-09-06T12:00:25.957Z,42.33
2022-09-06T12:07:07.986Z,41.47
2022-09-06T12:13:54.677Z,41.06
2022-09-06T12:20:08.728Z,41.43
2022-09-06T12:26:11.934Z,41.16
2022-09-06T12:32:22.626Z,41.23
2022-09-06T12:38:25.765Z,40.44
2022-09-06T12:44:42.877Z,40.81
2022-09-06T12:50:44.934Z,40.93
2022-09-06T12:56:46.882Z,40.72
2022-09-06T13:03:28.446Z,40.96
2022-09-06T13:09:31.642Z,41.77
2022-09-06T13:15:33.749Z,42.71
2022-09-06T13:21:39.029Z,42.49
2022-09-06T13:27:50.721Z,41.76
2022-09-06T13:33:58.251Z,40.24
2022-09-06T13:40:05.084Z,42.67
2022-09-06T13:46:10.860Z,43.88
2022-09-06T13:52:13.986Z,43.26
2022-09-06T13:58:16.010Z,41.00
2022-09-06T14:04:21.444Z,41.46
2022-09-06T14:10:23.968Z,41.45
2022-09-06T14:16:26.109Z,42.56
2022-09-06T14:22:28.067Z,42.83
2022-09-06T14:28:38.640Z,44.01
2022-09-06T14:34:40.574Z,44.38
2022-09-06T14:40:44.218Z,45.65
2022-09-06T14:46:47.761Z,44.92
2022-09-06T14:52:49.781Z,44.50
2022-09-06T14:58:51.944Z,43.23
2022-09-06T15:04:55.014Z,41.78
2022-09-06T15:10:58.320Z,43.16
2022-09-06T15:17:00.424Z,43.11
2022-09-06T15:23:33.968Z,44.51
2022-09-06T15:29:29.277Z,43.96
2022-09-06T15:35:31.344Z,43.77
2022-09-06T15:41:36.478Z,43.60
2022-09-06T15:47:40.178Z,43.82
2022-09-06T15:53:42.870Z,43.65
2022-09-06T15:59:45.433Z,43.21
2022-09-06T16:12:09.518Z,42.41
2022-09-06T16:18:12.006Z,42.23
2022-09-06T16:24:14.590Z,41.39
2022-09-06T16:30:16.701Z,40.74
2022-09-06T16:36:19.248Z,40.17
2022-09-06T16:42:21.545Z,40.09
2022-09-06T16:48:23.533Z,40.09
2022-09-06T16:54:25.586Z,38.42
2022-09-06T17:00:27.717Z,38.12
2022-09-06T17:06:30.789Z,37.76
2022-09-06T17:12:32.959Z,36.41
2022-09-06T17:18:35.886Z,34.82
2022-09-06T17:24:39.439Z,33.75
2022-09-06T17:30:41.700Z,33.12
2022-09-06T17:36:43.936Z,32.01
2022-09-06T17:42:45.924Z,30.56
2022-09-06T17:48:48.114Z,29.36
2022-09-06T17:54:50.059Z,28.52
2022-09-06T18:00:52.416Z,27.50
2022-09-06T18:06:54.388Z,27.06
2022-09-06T18:12:56.349Z,26.46
2022-09-06T18:19:01.357Z,25.89
2022-09-06T18:25:03.719Z,25.72
2022-09-06T18:31:12.544Z,25.36
2022-09-06T18:37:14.639Z,25.15
2022-09-06T18:43:16.728Z,24.89
2022-09-06T18:49:19.081Z,24.87
2022-09-06T18:55:21.075Z,24.46
2022-09-06T19:01:23.259Z,24.41
2022-09-06T19:07:28.539Z,24.18
2022-09-06T19:13:33.912Z,24.07
2022-09-06T19:19:35.872Z,23.89
2022-09-06T19:25:37.832Z,23.75
2022-09-06T19:31:40.166Z,23.63
2022-09-06T19:37:42.141Z,23.50
2022-09-06T19:43:44.307Z,23.24
2022-09-06T19:49:46.316Z,23.38
2022-09-06T19:55:48.271Z,23.02
2022-09-06T20:01:50.477Z,22.90
2022-09-06T20:07:52.612Z,22.93
2022-09-06T20:13:54.978Z,22.77
2022-09-06T20:19:56.929Z,22.61
2022-09-06T20:26:07.198Z,22.57
2022-09-06T20:32:09.688Z,22.49
2022-09-06T20:38:12.814Z,22.56
2022-09-06T20:44:14.921Z,22.28
2022-09-06T20:50:17.053Z,22.19
2022-09-06T20:56:22.569Z,22.42
2022-09-06T21:02:24.649Z,22.19
2022-09-06T21:08:26.764Z,22.27
2022-09-06T21:14:28.767Z,22.16
2022-09-06T21:20:31.332Z,21.93
2022-09-06T21:26:33.654Z,22.22
2022-09-06T21:32:35.628Z,21.92
2022-09-06T21:38:42.073Z,21.79
2022-09-06T21:44:44.246Z,21.76
2022-09-06T21:50:48.220Z,21.56
2022-09-06T21:56:50.220Z,21.61
2022-09-06T22:02:52.402Z,21.37
2022-09-06T22:08:55.608Z,21.36
2022-09-06T22:14:57.557Z,21.32
2022-09-06T22:21:08.810Z,21.22
2022-09-06T22:27:10.767Z,21.03
2022-09-06T22:33:12.703Z,20.97
2022-09-06T22:39:14.702Z,20.97
2022-09-06T22:45:16.713Z,20.93
2022-09-06T22:51:18.739Z,20.97
2022-09-06T22:57:20.681Z,21.00
2022-09-06T23:03:23.082Z,20.62
2022-09-06T23:09:25.580Z,20.65
2022-09-06T23:15:27.908Z,20.54
2022-09-06T23:21:29.876Z,20.83
2022-09-06T23:27:31.836Z,20.62
2022-09-06T23:33:37.590Z,20.61
2022-09-06T23:39:39.621Z,20.69
2022-09-06T23:45:42.107Z,20.63
2022-09-06T23:51:44.287Z,20.62
2022-09-06T23:57:46.327Z,20.56
